createdAt,value
2018-05-29T00:00:22.458Z,13.60
2018-05-29T00:02:48.787Z,12.23
2018-05-29T00:05:15.116Z,13.50
2018-05-29T00:07:42.115Z,12.40
2018-05-29T00:10:09.178Z,12.37
2018-05-29T00:12:36.259Z,11.73
2018-05-29T00:15:02.478Z,12.13
2018-05-29T00:17:29.479Z,12.10
2018-05-29T00:19:55.764Z,11.40
2018-05-29T00:22:22.021Z,13.70
2018-05-29T00:24:49.030Z,13.73
2018-05-29T00:27:15.282Z,12.00
2018-05-29T00:29:41.588Z,12.70
2018-05-29T00:32:07.828Z,12.27
2018-05-29T00:34:34.164Z,13.10
2018-05-29T00:37:01.152Z,11.73
2018-05-29T00:39:28.199Z,12.83
2018-05-29T00:41:54.624Z,13.73
2018-05-29T00:44:21.620Z,13.50
2018-05-29T00:46:47.865Z,12.90
2018-05-29T00:49:14.252Z,12.57
2018-05-29T00:51:40.448Z,13.53
2018-05-29T00:54:06.778Z,13.10
2018-05-29T00:56:33.075Z,12.83
2018-05-29T00:58:59.302Z,12.93
2018-05-29T01:01:27.095Z,14.53
2018-05-29T01:03:54.148Z,13.90
2018-05-29T01:06:20.405Z,13.03
2018-05-29T01:08:47.419Z,13.27
2018-05-29T01:11:13.652Z,13.10
2018-05-29T01:13:40.604Z,14.40
2018-05-29T01:16:06.851Z,13.13
2018-05-29T01:18:33.149Z,14.40
2018-05-29T01:21:00.211Z,13.53
2018-05-29T01:23:27.205Z,14.67
2018-05-29T01:25:53.842Z,13.20
2018-05-29T01:28:20.107Z,13.03
2018-05-29T01:30:46.341Z,13.27
2018-05-29T01:33:12.640Z,14.23
2018-05-29T01:35:39.702Z,13.70
2018-05-29T01:38:06.670Z,13.43
2018-05-29T01:40:32.926Z,12.63
2018-05-29T01:42:59.131Z,14.63
2018-05-29T01:45:25.391Z,14.57
2018-05-29T01:47:52.376Z,14.67
2018-05-29T01:50:18.676Z,13.67
2018-05-29T01:52:44.908Z,13.37
2018-05-29T01:55:11.197Z,14.37
2018-05-29T01:57:37.437Z,14.53
2018-05-29T02:00:03.698Z,15.07
2018-05-29T02:02:30.021Z,13.77
2018-05-29T02:04:56.286Z,13.03
2018-05-29T02:07:23.349Z,12.97
2018-05-29T02:09:49.607Z,13.37
2018-05-29T02:12:16.407Z,13.57
2018-05-29T02:14:43.454Z,14.63
2018-05-29T02:17:10.498Z,14.10
2018-05-29T02:19:36.842Z,14.27
2018-05-29T02:22:03.185Z,15.00
2018-05-29T02:24:29.502Z,14.93
2018-05-29T02:26:55.764Z,14.03
2018-05-29T02:29:22.051Z,21.57
2018-05-29T02:31:48.270Z,15.77
2018-05-29T02:34:15.297Z,19.70
2018-05-29T02:36:41.612Z,14.17
2018-05-29T02:39:07.854Z,14.80
2018-05-29T02:41:34.063Z,15.00
2018-05-29T02:44:01.075Z,15.40
2018-05-29T02:46:27.367Z,15.90
2018-05-29T02:48:53.713Z,15.13
2018-05-29T02:51:19.954Z,16.03
2018-05-29T02:53:46.536Z,16.10
2018-05-29T02:56:12.776Z,15.80
2018-05-29T02:58:39.056Z,16.20
2018-05-29T03:01:05.337Z,16.17
2018-05-29T03:03:31.586Z,13.77
2018-05-29T03:05:57.860Z,15.30
2018-05-29T03:08:24.147Z,14.63
2018-05-29T03:10:50.373Z,16.07
2018-05-29T03:13:16.569Z,15.70
2018-05-29T03:15:42.872Z,15.83
2018-05-29T03:18:09.855Z,14.83
2018-05-29T03:20:36.726Z,16.53
2018-05-29T03:23:03.158Z,15.47
2018-05-29T03:25:29.621Z,14.57
2018-05-29T03:27:55.892Z,14.33
2018-05-29T03:30:22.728Z,14.57
2018-05-29T03:32:48.976Z,14.53
2018-05-29T03:35:15.256Z,14.80
2018-05-29T03:37:42.287Z,14.77
2018-05-29T03:40:08.525Z,13.53
2018-05-29T03:42:34.839Z,14.40
2018-05-29T03:45:01.124Z,14.00
2018-05-29T03:47:27.408Z,14.40
2018-05-29T03:49:53.734Z,15.00
2018-05-29T03:52:19.982Z,16.17
2018-05-29T03:54:46.295Z,16.07
2018-05-29T03:57:13.258Z,16.00
2018-05-29T03:59:40.211Z,14.53
2018-05-29T04:02:07.244Z,17.10
2018-05-29T04:04:33.526Z,17.10
2018-05-29T04:07:00.552Z,16.40
2018-05-29T04:09:27.608Z,16.60
2018-05-29T04:11:54.614Z,17.10
2018-05-29T04:14:20.851Z,16.67
2018-05-29T04:16:47.888Z,17.63
2018-05-29T04:19:14.141Z,17.33
2018-05-29T04:21:41.145Z,15.57
2018-05-29T04:24:08.191Z,16.23
2018-05-29T04:26:34.410Z,15.20
2018-05-29T04:29:01.465Z,14.53
2018-05-29T04:31:28.427Z,13.80
2018-05-29T04:33:55.436Z,14.33
2018-05-29T04:36:21.727Z,14.20
2018-05-29T04:38:48.723Z,14.20
2018-05-29T04:41:15.786Z,14.60
2018-05-29T04:43:42.066Z,13.67
2018-05-29T04:46:08.286Z,14.10
2018-05-29T04:48:34.479Z,15.30
2018-05-29T04:51:00.862Z,14.23
2018-05-29T04:53:27.205Z,15.20
2018-05-29T04:55:53.476Z,15.70
2018-05-29T04:58:19.749Z,15.40
2018-05-29T05:00:46.198Z,15.97
2018-05-29T05:03:12.479Z,15.03
2018-05-29T05:05:38.812Z,17.87
2018-05-29T05:08:05.101Z,16.03
2018-05-29T05:10:32.137Z,15.17
2018-05-29T05:12:58.437Z,20.60
2018-05-29T05:15:24.722Z,20.17
2018-05-29T05:17:51.021Z,20.27
2018-05-29T05:20:17.297Z,20.57
2018-05-29T05:22:43.554Z,22.67
2018-05-29T05:25:09.799Z,23.47
2018-05-29T05:27:36.102Z,21.37
2018-05-29T05:30:02.449Z,22.23
2018-05-29T05:32:28.731Z,24.50
2018-05-29T05:34:54.949Z,23.40
2018-05-29T05:37:21.245Z,24.63
2018-05-29T05:39:47.571Z,22.07
2018-05-29T05:42:14.630Z,22.10
2018-05-29T05:44:41.655Z,15.87
2018-05-29T05:47:07.887Z,21.17
2018-05-29T05:49:34.168Z,17.47
2018-05-29T05:52:01.182Z,19.40
2018-05-29T05:54:27.503Z,15.93
2018-05-29T05:56:53.747Z,15.00
2018-05-29T05:59:20.012Z,17.80
2018-05-29T06:01:46.268Z,14.57
2018-05-29T06:04:13.276Z,16.93
2018-05-29T06:06:39.526Z,16.43
2018-05-29T06:09:05.810Z,19.53
2018-05-29T06:11:32.084Z,20.10
2018-05-29T06:13:59.214Z,15.80
2018-05-29T06:16:25.568Z,17.57
2018-05-29T06:18:51.824Z,16.73
2018-05-29T06:21:18.851Z,16.87
2018-05-29T06:23:45.910Z,16.83
2018-05-29T06:26:12.261Z,15.33
2018-05-29T06:28:38.514Z,15.20
2018-05-29T06:31:05.389Z,13.27
2018-05-29T06:33:32.417Z,13.03
2018-05-29T06:35:58.773Z,13.23
2018-05-29T06:38:25.661Z,12.70
2018-05-29T06:40:51.944Z,11.40
2018-05-29T06:43:18.265Z,12.03
2018-05-29T06:45:44.531Z,11.67
2018-05-29T06:48:11.562Z,11.17
2018-05-29T06:50:37.828Z,10.93
2018-05-29T06:53:04.152Z,11.17
2018-05-29T06:55:30.355Z,10.83
2018-05-29T06:57:57.376Z,10.20
2018-05-29T07:00:23.681Z,10.40
2018-05-29T07:02:49.940Z,11.10
2018-05-29T07:05:16.230Z,10.63
2018-05-29T07:07:43.227Z,10.83
2018-05-29T07:10:09.617Z,10.80
2018-05-29T07:12:35.877Z,10.50
2018-05-29T07:15:02.184Z,9.73
2018-05-29T07:17:28.585Z,10.17
2018-05-29T07:19:55.638Z,10.17
2018-05-29T07:22:21.905Z,10.97
2018-05-29T07:24:48.220Z,10.23
2018-05-29T07:27:15.265Z,10.17
2018-05-29T07:29:42.306Z,10.43
2018-05-29T07:32:09.596Z,10.73
2018-05-29T07:34:35.946Z,9.73
2018-05-29T07:37:02.290Z,10.30
2018-05-29T07:39:29.333Z,10.17
2018-05-29T07:41:55.596Z,10.07
2018-05-29T07:44:22.602Z,10.37
2018-05-29T07:46:48.867Z,10.10
2018-05-29T07:49:15.493Z,10.40
2018-05-29T07:51:41.819Z,9.90
2018-05-29T07:54:08.086Z,9.90
2018-05-29T07:56:35.108Z,10.03
2018-05-29T07:59:01.412Z,9.60
2018-05-29T08:01:27.746Z,9.97
2018-05-29T08:03:54.024Z,10.13
2018-05-29T08:06:21.224Z,9.70
2018-05-29T08:08:47.500Z,10.30
2018-05-29T08:11:13.793Z,10.20
2018-05-29T08:13:40.085Z,10.10
2018-05-29T08:16:06.358Z,10.00
2018-05-29T08:18:32.729Z,9.90
2018-05-29T08:20:58.971Z,9.67
2018-05-29T08:23:25.318Z,10.10
2018-05-29T08:25:52.356Z,10.23
2018-05-29T08:28:18.626Z,9.70
2018-05-29T08:30:44.896Z,10.33
2018-05-29T08:33:11.182Z,10.30
2018-05-29T08:35:37.461Z,10.50
2018-05-29T08:38:04.486Z,10.43
2018-05-29T08:40:30.740Z,10.57
2018-05-29T08:42:57.566Z,11.20
2018-05-29T08:45:24.621Z,10.00
2018-05-29T08:47:50.906Z,10.37
2018-05-29T08:50:17.162Z,10.27
2018-05-29T08:52:43.503Z,10.27
2018-05-29T08:55:09.759Z,11.47
2018-05-29T08:57:35.996Z,11.13
2018-05-29T09:00:02.422Z,11.10
2018-05-29T09:02:30.892Z,10.50
2018-05-29T09:04:57.205Z,11.53
2018-05-29T09:07:24.192Z,11.27
2018-05-29T09:09:50.441Z,11.27
2018-05-29T09:12:16.695Z,11.37
2018-05-29T09:14:43.047Z,10.97
2018-05-29T09:17:09.457Z,11.63
2018-05-29T09:19:36.465Z,11.57
2018-05-29T09:22:02.775Z,11.60
2018-05-29T09:24:29.125Z,11.83
2018-05-29T09:26:55.416Z,12.10
2018-05-29T09:29:21.710Z,11.53
2018-05-29T09:31:47.998Z,11.67
2018-05-29T09:34:14.321Z,11.80
2018-05-29T09:36:41.370Z,12.00
2018-05-29T09:39:07.632Z,11.50
2018-05-29T09:41:33.956Z,12.00
2018-05-29T09:44:00.229Z,12.30
2018-05-29T09:46:26.486Z,12.77
2018-05-29T09:48:53.598Z,12.43
2018-05-29T09:51:19.922Z,11.97
2018-05-29T09:53:46.227Z,12.33
2018-05-29T09:56:13.219Z,11.73
2018-05-29T09:58:39.553Z,12.30
2018-05-29T10:01:06.723Z,12.77
2018-05-29T10:03:32.990Z,11.77
2018-05-29T10:05:59.306Z,12.17
2018-05-29T10:08:25.564Z,11.83
2018-05-29T10:10:51.862Z,12.33
2018-05-29T10:13:18.292Z,12.50
2018-05-29T10:15:44.508Z,12.17
2018-05-29T10:18:10.807Z,12.73
2018-05-29T10:20:37.800Z,11.70
2018-05-29T10:23:04.182Z,11.27
2018-05-29T10:25:30.475Z,11.77
2018-05-29T10:27:56.797Z,12.10
2018-05-29T10:30:23.110Z,11.87
2018-05-29T10:32:50.158Z,11.60
2018-05-29T10:35:16.461Z,11.73
2018-05-29T10:37:42.722Z,11.83
2018-05-29T10:40:09.027Z,12.73
2018-05-29T10:42:35.357Z,12.03
2018-05-29T10:45:02.419Z,12.33
2018-05-29T10:47:29.515Z,12.20
2018-05-29T10:49:55.782Z,12.20
2018-05-29T10:52:22.073Z,12.30
2018-05-29T10:54:49.146Z,11.80
2018-05-29T10:57:15.389Z,11.97
2018-05-29T10:59:41.658Z,11.97
2018-05-29T11:02:07.928Z,11.77
2018-05-29T11:04:34.236Z,11.87
2018-05-29T11:07:00.545Z,11.87
2018-05-29T11:09:26.769Z,11.10
2018-05-29T11:11:53.095Z,11.33
2018-05-29T11:14:19.484Z,11.20
2018-05-29T11:16:45.662Z,11.50
2018-05-29T11:19:11.945Z,11.63
2018-05-29T11:21:38.962Z,10.70
2018-05-29T11:24:05.428Z,11.97
2018-05-29T11:26:34.968Z,12.37
2018-05-29T11:29:02.084Z,11.70
2018-05-29T11:31:28.463Z,11.47
2018-05-29T11:33:54.752Z,11.10
2018-05-29T11:36:21.050Z,10.90
2018-05-29T11:38:47.338Z,11.33
2018-05-29T11:41:13.786Z,11.47
2018-05-29T11:43:40.059Z,11.80
2018-05-29T11:46:06.337Z,10.77
2018-05-29T11:48:33.385Z,10.70
2018-05-29T11:51:00.212Z,10.30
2018-05-29T11:53:26.476Z,10.40
2018-05-29T11:55:52.837Z,11.17
2018-05-29T11:58:19.775Z,10.13
2018-05-29T12:00:46.079Z,10.63
2018-05-29T12:03:12.348Z,10.83
2018-05-29T12:05:38.610Z,10.27
2018-05-29T12:08:05.731Z,10.20
2018-05-29T12:10:32.125Z,10.83
2018-05-29T12:12:59.918Z,10.40
2018-05-29T12:15:26.256Z,10.07
2018-05-29T12:17:52.530Z,10.57
2018-05-29T12:20:19.087Z,10.67
2018-05-29T12:22:45.372Z,10.43
2018-05-29T12:25:12.411Z,9.43
2018-05-29T12:27:38.710Z,9.90
2018-05-29T12:30:04.983Z,9.63
2018-05-29T12:32:31.310Z,10.13
2018-05-29T12:34:57.894Z,9.00
2018-05-29T12:37:24.220Z,9.43
2018-05-29T12:39:50.443Z,9.50
2018-05-29T12:42:16.750Z,9.50
2018-05-29T12:44:43.005Z,9.60
2018-05-29T12:47:09.324Z,9.73
2018-05-29T12:49:35.614Z,9.43
2018-05-29T12:52:01.958Z,9.63
2018-05-29T12:54:28.238Z,9.20
2018-05-29T12:56:54.683Z,10.10
2018-05-29T12:59:21.000Z,9.67
2018-05-29T13:01:47.270Z,9.83
2018-05-29T13:04:13.591Z,9.87
2018-05-29T13:06:39.915Z,9.53
2018-05-29T13:09:06.953Z,9.00
2018-05-29T13:11:33.258Z,9.40
2018-05-29T13:13:59.552Z,8.87
2018-05-29T13:16:25.802Z,9.70
2018-05-29T13:18:52.109Z,9.47
2018-05-29T13:21:18.426Z,9.53
2018-05-29T13:23:44.728Z,8.90
2018-05-29T13:26:11.030Z,9.23
2018-05-29T13:28:37.298Z,9.17
2018-05-29T13:31:03.647Z,9.40
2018-05-29T13:33:30.099Z,9.03
2018-05-29T13:35:56.433Z,9.40
2018-05-29T13:38:22.843Z,9.53
2018-05-29T13:40:49.866Z,8.97
2018-05-29T13:43:16.104Z,8.93
2018-05-29T13:45:42.383Z,9.20
2018-05-29T13:48:08.638Z,9.67
2018-05-29T13:50:35.682Z,9.20
2018-05-29T13:53:02.786Z,9.00
2018-05-29T13:55:29.124Z,9.27
2018-05-29T13:57:55.404Z,8.60
2018-05-29T14:00:21.637Z,8.80
2018-05-29T14:02:47.911Z,8.40
2018-05-29T14:05:14.153Z,9.47
2018-05-29T14:07:41.196Z,8.67
2018-05-29T14:10:07.493Z,8.17
2018-05-29T14:12:33.852Z,8.47
2018-05-29T14:15:00.106Z,8.13
2018-05-29T14:17:26.524Z,8.07
2018-05-29T14:19:52.879Z,8.73
2018-05-29T14:22:20.455Z,8.87
2018-05-29T14:24:46.736Z,8.20
2018-05-29T14:27:12.950Z,8.20
2018-05-29T14:29:39.211Z,8.70
2018-05-29T14:32:05.553Z,8.50
2018-05-29T14:34:32.471Z,8.60
2018-05-29T14:36:58.736Z,7.93
2018-05-29T14:39:24.936Z,7.80
2018-05-29T14:41:51.263Z,7.80
2018-05-29T14:44:18.325Z,8.27
2018-05-29T14:46:44.587Z,8.17
2018-05-29T14:49:10.855Z,8.30
2018-05-29T14:51:37.104Z,8.83
2018-05-29T14:54:04.292Z,8.10
2018-05-29T14:56:30.567Z,7.57
2018-05-29T14:58:57.525Z,8.30
2018-05-29T15:01:23.778Z,8.20
2018-05-29T15:03:50.027Z,8.10
2018-05-29T15:06:16.405Z,8.40
2018-05-29T15:08:42.622Z,8.37
2018-05-29T15:11:08.915Z,8.60
2018-05-29T15:13:35.898Z,8.47
2018-05-29T15:16:02.331Z,7.90
2018-05-29T15:18:28.715Z,7.73
2018-05-29T15:20:55.775Z,8.00
2018-05-29T15:23:22.051Z,8.30
2018-05-29T15:25:49.134Z,8.27
2018-05-29T15:28:16.165Z,7.93
2018-05-29T15:30:42.419Z,8.10
2018-05-29T15:33:09.415Z,9.03
2018-05-29T15:35:35.757Z,9.07
2018-05-29T15:38:02.021Z,9.00
2018-05-29T15:40:28.296Z,9.27
2018-05-29T15:42:54.599Z,9.03
2018-05-29T15:45:21.610Z,9.70
2018-05-29T15:47:47.883Z,9.30
2018-05-29T15:50:14.248Z,10.30
2018-05-29T15:52:40.557Z,10.77
2018-05-29T15:55:07.607Z,10.33
2018-05-29T15:57:34.677Z,10.40
2018-05-29T16:00:01.024Z,11.40
2018-05-29T16:02:28.075Z,10.80
2018-05-29T16:04:54.434Z,11.53
2018-05-29T16:07:20.771Z,12.17
2018-05-29T16:09:47.042Z,10.80
2018-05-29T16:12:13.344Z,12.03
2018-05-29T16:14:39.724Z,12.43
2018-05-29T16:17:06.056Z,11.47
2018-05-29T16:19:32.334Z,12.40
2018-05-29T16:21:58.627Z,11.87
2018-05-29T16:24:25.667Z,13.13
2018-05-29T16:26:51.974Z,11.70
2018-05-29T16:29:18.327Z,11.03
2018-05-29T16:31:44.612Z,11.27
2018-05-29T16:34:12.647Z,11.37
2018-05-29T16:36:38.869Z,11.03
2018-05-29T16:39:05.192Z,11.40
2018-05-29T16:41:31.496Z,10.90
2018-05-29T16:43:57.880Z,11.00
2018-05-29T16:46:24.206Z,11.23
2018-05-29T16:48:51.272Z,10.60
2018-05-29T16:51:18.261Z,11.23
2018-05-29T16:53:44.614Z,11.00
2018-05-29T16:56:10.862Z,11.37
2018-05-29T16:58:37.137Z,10.87
2018-05-29T17:01:04.150Z,11.03
2018-05-29T17:03:30.370Z,10.70
2018-05-29T17:08:31.204Z,10.40
2018-05-29T17:10:57.462Z,9.50
2018-05-29T17:13:24.505Z,8.83
2018-05-29T17:15:50.798Z,9.23
2018-05-29T17:18:17.042Z,9.97
2018-05-29T17:20:43.370Z,9.67
2018-05-29T17:23:09.650Z,9.13
2018-05-29T17:25:35.958Z,9.37
2018-05-29T17:28:02.248Z,8.40
2018-05-29T17:30:28.569Z,7.80
2018-05-29T17:32:55.602Z,8.30
2018-05-29T17:35:21.898Z,8.87
2018-05-29T17:37:48.139Z,9.03
2018-05-29T17:40:14.396Z,8.17
2018-05-29T17:42:40.763Z,8.30
2018-05-29T17:45:07.128Z,8.40
2018-05-29T17:47:33.374Z,8.83
2018-05-29T17:50:00.514Z,8.40
2018-05-29T17:52:27.635Z,8.30
2018-05-29T17:54:53.991Z,8.37
2018-05-29T17:57:20.254Z,9.00
2018-05-29T17:59:47.248Z,8.90
2018-05-29T18:02:13.614Z,9.13
2018-05-29T18:04:39.982Z,8.50
2018-05-29T18:07:06.231Z,8.87
2018-05-29T18:09:32.628Z,8.00
2018-05-29T18:11:59.091Z,8.33
2018-05-29T18:14:25.408Z,8.50
2018-05-29T18:16:51.770Z,9.00
2018-05-29T18:19:18.047Z,8.53
2018-05-29T18:21:45.134Z,7.97
2018-05-29T18:24:11.450Z,7.93
2018-05-29T18:26:37.743Z,8.47
2018-05-29T18:29:04.066Z,8.60
2018-05-29T18:31:31.254Z,8.17
2018-05-29T18:33:57.736Z,8.07
2018-05-29T18:36:24.782Z,7.80
2018-05-29T18:38:51.068Z,8.47
2018-05-29T18:41:18.119Z,8.17
2018-05-29T18:43:45.197Z,8.03
2018-05-29T18:46:11.545Z,8.17
2018-05-29T18:48:37.798Z,9.20
2018-05-29T18:51:04.089Z,7.87
2018-05-29T18:53:30.718Z,9.40
2018-05-29T18:55:57.079Z,9.47
2018-05-29T18:58:24.106Z,7.83
2018-05-29T19:00:50.372Z,7.83
2018-05-29T19:03:16.682Z,8.03
2018-05-29T19:05:42.970Z,8.40
2018-05-29T19:08:09.243Z,8.43
2018-05-29T19:10:36.285Z,7.87
2018-05-29T19:13:03.298Z,7.70
2018-05-29T19:15:29.802Z,7.67
2018-05-29T19:17:56.152Z,7.90
2018-05-29T19:20:22.489Z,7.57
2018-05-29T19:22:48.799Z,7.60
2018-05-29T19:25:15.011Z,7.23
2018-05-29T19:27:41.395Z,7.73
2018-05-29T19:30:07.724Z,8.37
2018-05-29T19:32:33.997Z,8.53
2018-05-29T19:35:01.031Z,7.43
2018-05-29T19:37:27.378Z,7.80
2018-05-29T19:39:54.432Z,8.23
2018-05-29T19:42:20.740Z,7.33
2018-05-29T19:44:47.025Z,7.50
2018-05-29T19:47:13.252Z,7.40
2018-05-29T19:49:39.562Z,8.00
2018-05-29T19:52:05.921Z,8.43
2018-05-29T19:54:32.188Z,7.63
2018-05-29T19:56:59.726Z,8.40
2018-05-29T19:59:26.002Z,7.90
2018-05-29T20:01:52.243Z,8.30
2018-05-29T20:04:18.537Z,8.13
2018-05-29T20:06:44.866Z,8.27
2018-05-29T20:09:11.176Z,8.20
2018-05-29T20:11:37.475Z,7.60
2018-05-29T20:14:03.774Z,7.37
2018-05-29T20:16:30.828Z,7.50
2018-05-29T20:18:57.184Z,7.33
2018-05-29T20:21:24.382Z,7.47
2018-05-29T20:23:50.724Z,8.73
2018-05-29T20:26:16.964Z,9.30
2018-05-29T20:28:43.277Z,8.80
2018-05-29T20:31:10.364Z,9.20
2018-05-29T20:33:36.709Z,11.30
2018-05-29T20:36:03.050Z,11.80
2018-05-29T20:38:30.366Z,10.63
2018-05-29T20:40:56.650Z,10.63
2018-05-29T20:43:22.959Z,9.90
2018-05-29T20:45:49.988Z,10.60
2018-05-29T20:48:16.284Z,12.63
2018-05-29T20:50:43.281Z,9.63
2018-05-29T20:53:09.580Z,10.67
2018-05-29T20:55:35.936Z,10.63
2018-05-29T20:58:02.181Z,12.13
2018-05-29T21:00:28.514Z,14.23
2018-05-29T21:02:54.805Z,11.43
2018-05-29T21:05:21.136Z,12.90
2018-05-29T21:07:47.428Z,9.40
2018-05-29T21:10:14.524Z,9.13
2018-05-29T21:12:40.764Z,9.30
2018-05-29T21:15:07.087Z,9.83
2018-05-29T21:17:33.348Z,9.83
2018-05-29T21:20:00.978Z,13.90
2018-05-29T21:22:28.219Z,12.33
2018-05-29T21:24:54.538Z,10.30
2018-05-29T21:27:20.812Z,9.07
2018-05-29T21:29:47.201Z,9.27
2018-05-29T21:32:13.493Z,9.37
2018-05-29T21:34:39.861Z,12.07
2018-05-29T21:37:06.262Z,13.30
2018-05-29T21:39:32.588Z,11.57
2018-05-29T21:42:00.519Z,9.50
2018-05-29T21:44:26.960Z,8.70
2018-05-29T21:46:53.465Z,9.00
2018-05-29T21:49:19.944Z,9.40
2018-05-29T21:51:46.865Z,8.83
2018-05-29T21:54:13.252Z,8.83
2018-05-29T21:56:39.678Z,9.20
2018-05-29T21:59:06.161Z,8.90
2018-05-29T22:01:32.613Z,9.20
2018-05-29T22:04:03.616Z,9.77
2018-05-29T22:06:30.232Z,8.90
2018-05-29T22:08:57.904Z,8.47
2018-05-29T22:11:24.305Z,8.87
2018-05-29T22:13:51.016Z,9.07
2018-05-29T22:16:17.430Z,9.70
2018-05-29T22:18:44.577Z,9.37
2018-05-29T22:21:12.152Z,9.53
2018-05-29T22:23:38.585Z,9.50
2018-05-29T22:26:05.139Z,9.33
2018-05-29T22:28:31.941Z,9.30
2018-05-29T22:30:58.409Z,10.00
2018-05-29T22:33:24.836Z,10.33
2018-05-29T22:35:51.625Z,9.60
2018-05-29T22:38:18.069Z,10.10
2018-05-29T22:40:44.524Z,10.20
2018-05-29T22:43:10.944Z,9.50
2018-05-29T22:45:37.352Z,10.73
2018-05-29T22:48:04.619Z,10.10
2018-05-29T22:50:31.866Z,10.30
2018-05-29T22:52:58.364Z,10.70
2018-05-29T22:55:24.761Z,11.90
2018-05-29T22:57:51.094Z,10.57
2018-05-29T23:00:17.557Z,9.90
2018-05-29T23:02:43.904Z,11.13
2018-05-29T23:05:10.961Z,10.40
2018-05-29T23:07:37.337Z,10.13
2018-05-29T23:10:03.736Z,10.07
2018-05-29T23:12:30.152Z,12.17
2018-05-29T23:14:56.536Z,10.10
2018-05-29T23:17:23.664Z,12.07
2018-05-29T23:19:50.041Z,11.70
2018-05-29T23:22:16.405Z,10.10
2018-05-29T23:24:43.551Z,11.47
2018-05-29T23:27:13.525Z,10.07
2018-05-29T23:29:39.847Z,10.03
2018-05-29T23:32:06.216Z,10.00
2018-05-29T23:34:32.544Z,10.90
2018-05-29T23:36:58.981Z,10.10
2018-05-29T23:39:25.333Z,11.30
2018-05-29T23:41:51.777Z,11.17
2018-05-29T23:44:18.234Z,10.17
2018-05-29T23:46:44.637Z,10.53
2018-05-29T23:49:13.076Z,10.13
2018-05-29T23:51:39.421Z,9.10
2018-05-29T23:54:05.858Z,10.37
2018-05-29T23:56:32.272Z,10.27
2018-05-29T23:58:59.424Z,10.27
